Airfield :
LOGIN :

Register | Disclaimer

   EN    FR    IT 

 










Legend :    VFR   Marginal VFR   IFR   Intensive IFR   Very Intensive IFR
Visi :
Ceiling :
>= 8 km
>= 3000ft
5 to 8 km
1000 to 3000 ft
1500m to 5 km
500 to 1000 ft
800 to 1500m
200 to 500 ft
< 800m
< 200 ft
Symbols :   Thunderstorms  Fog  Heavy snow  Heavy precipitations  Wind > 20 kt
SIGMETs :     Misc.  Thunderstorms  Icing  Turbulence  Mountain Waves  Volcanic Ashes







- Airport Elevation : 995 ft
- IATA code : KTW


EPKT - Katowice

CURRENT METAR :
  • 200330Z 26014KT 9999 -SHSN BKN006 BKN008CB 01/M00 Q1008

EXPIRED METARs :
  • 200300Z 26013KT 9999 -SHSN FEW003 BKN005 BKN007CB 01/M00 Q1007 RESHSN
  • 200230Z 27014KT 9000 -SHSN FEW006 BKN008 BKN010CB 01/M00 Q1007
  • 200200Z 26015KT 8000 -SHSN FEW003 SCT006 BKN007CB 01/M00 Q1007 RESHSN
  • 200130Z 26013KT 9999 SCT007 BKN009 OVC011 00/M00 Q1007
  • 200100Z 27010KT 9999 FEW008 SCT010 00/M01 Q1007

TAF TAF EPKT
Valid from the 20 at 00:00 until the 21 at 00:00 UTC


192330Z 2000/2024 27015KT 9999 BKN020
TEMPO 2000/2009 27022G35KT 1400 SHSN BKN004 BKN009CB
TEMPO 2009/2021 27018G28KT 2500 SHSNRA BKN006 BKN011CB
BECMG 2021/2024 23005KT 2500 BR BKN007
No reported NOTAMs for that airfield.



MET'MAP, your aeronautical weather chart ! - Copyright ORBIFLY December 2007 - Disclaimer

ORBIFLY MET'MAP TEAM :

Programming & Development : Alexandra Zaïnal
Concept & Development : Baudouin d'Aumeries
Co-Development & Prog : Marc-Olivier Méhu
Technical & hardware support : Manuel Goepfert

Contact : metmap@orbifly.com




SOURCES & CREDITS :

   NOAA